Time;durP1;ratioP1;P1;durP2;ratioP2;P2;SDS_P1;SDS_P2;PMS_P1;PMS_P2;Temp;Humidity;BMP_temperature;BMP_pressure;BME280_temperature;BME280_humidity;BME280_pressure;Samples;Min_cycle;Max_cycle;Signal;HPM_P1;HPM_P2
2021/12/09 00:01:23;;;;;;;28.53;14.53;;;6.50;86.40;;;;;;5124651;27;20192;-76
2021/12/09 00:03:54;;;;;;;26.83;13.97;;;6.50;86.40;;;;;;5125023;27;20185;-76
2021/12/09 00:06:26;;;;;;;29.40;13.87;;;6.50;86.40;;;;;;5113979;27;20191;-76
2021/12/09 00:09:03;;;;;;;27.23;13.47;;;6.50;86.30;;;;;;5118125;27;20186;-75
2021/12/09 00:11:34;;;;;;;28.67;13.50;;;6.50;86.30;;;;;;5115586;27;20602;-76
2021/12/09 00:14:03;;;;;;;31.10;15.07;;;6.50;86.30;;;;;;5115203;27;20198;-76
2021/12/09 00:16:31;;;;;;;31.33;15.00;;;6.50;86.30;;;;;;5112267;27;20219;-76
2021/12/09 00:19:00;;;;;;;31.87;15.87;;;6.50;86.10;;;;;;5118458;27;20912;-76
2021/12/09 00:21:28;;;;;;;27.23;14.30;;;6.50;86.10;;;;;;5120957;27;20193;-76
2021/12/09 00:23:58;;;;;;;30.37;14.07;;;6.50;86.10;;;;;;5129175;27;20209;-76
2021/12/09 00:26:26;;;;;;;28.20;13.83;;;6.50;86.00;;;;;;5120694;27;20184;-76
2021/12/09 00:28:54;;;;;;;35.37;15.60;;;6.50;85.90;;;;;;5117978;27;20190;-76
2021/12/09 00:31:23;;;;;;;34.33;16.23;;;6.50;85.90;;;;;;5115031;27;20449;-75
2021/12/09 00:33:52;;;;;;;34.30;16.30;;;6.50;85.80;;;;;;5119050;27;20189;-76
2021/12/09 00:36:30;;;;;;;31.10;15.63;;;6.50;85.90;;;;;;5117560;27;20196;-76
2021/12/09 00:39:00;;;;;;;35.67;15.50;;;6.50;85.80;;;;;;5109013;27;20181;-76
2021/12/09 00:41:29;;;;;;;36.93;17.80;;;6.40;85.60;;;;;;5126834;27;20617;-76
2021/12/09 00:43:57;;;;;;;40.13;18.97;;;6.40;85.50;;;;;;5118033;27;20245;-77
2021/12/09 00:46:25;;;;;;;36.07;17.20;;;6.40;85.50;;;;;;5121125;27;20187;-76
2021/12/09 00:48:54;;;;;;;34.43;16.37;;;6.40;85.70;;;;;;5118199;27;20259;-76
2021/12/09 00:51:22;;;;;;;35.50;16.37;;;6.30;85.60;;;;;;5116129;27;20201;-76
2021/12/09 00:53:51;;;;;;;33.20;15.60;;;6.30;85.70;;;;;;5118490;27;20196;-75
2021/12/09 00:56:20;;;;;;;35.00;16.87;;;6.30;85.60;;;;;;5113428;27;20212;-76
2021/12/09 00:58:49;;;;;;;33.63;15.20;;;6.30;85.70;;;;;;5114317;27;20192;-76
2021/12/09 01:01:17;;;;;;;30.23;15.27;;;6.30;85.60;;;;;;5115381;27;20189;-76
2021/12/09 01:03:50;;;;;;;35.47;16.40;;;6.20;85.50;;;;;;5116146;27;20196;-76
2021/12/09 01:06:18;;;;;;;34.70;15.83;;;6.20;85.60;;;;;;5123415;27;20182;-76
2021/12/09 01:08:47;;;;;;;32.07;15.93;;;6.20;85.70;;;;;;5111803;27;20193;-76
2021/12/09 01:11:16;;;;;;;33.57;16.67;;;6.20;85.80;;;;;;5109288;27;20196;-76
2021/12/09 01:13:45;;;;;;;34.20;16.13;;;6.20;85.80;;;;;;5107319;27;20185;-76
2021/12/09 01:16:14;;;;;;;31.00;14.97;;;6.10;85.70;;;;;;5110991;27;22183;-76
2021/12/09 01:18:43;;;;;;;27.57;14.03;;;6.10;85.90;;;;;;5118001;27;20204;-76
2021/12/09 01:21:13;;;;;;;28.20;15.10;;;6.10;85.90;;;;;;5120284;27;20195;-76
2021/12/09 01:23:42;;;;;;;31.40;16.00;;;6.10;85.90;;;;;;5112343;27;20202;-76
2021/12/09 01:26:11;;;;;;;33.53;14.97;;;6.10;86.00;;;;;;5113908;27;20252;-76
2021/12/09 01:28:46;;;;;;;34.00;16.07;;;6.10;86.10;;;;;;5114925;27;20189;-76
2021/12/09 01:31:22;;;;;;;33.07;14.83;;;6.00;86.00;;;;;;5120062;27;20191;-76
2021/12/09 01:33:53;;;;;;;31.00;15.07;;;6.00;86.10;;;;;;5125229;27;20187;-76
2021/12/09 01:36:22;;;;;;;32.07;15.23;;;6.00;86.10;;;;;;5125093;27;20220;-76
2021/12/09 01:38:50;;;;;;;33.60;15.57;;;6.00;86.10;;;;;;5117863;27;20194;-76
2021/12/09 01:41:19;;;;;;;35.27;15.50;;;5.90;86.10;;;;;;5116712;27;20197;-76
2021/12/09 01:43:47;;;;;;;31.10;15.33;;;6.00;86.20;;;;;;5109801;27;20192;-76
2021/12/09 01:46:20;;;;;;;30.93;15.13;;;6.00;86.30;;;;;;5113784;27;20194;-76
2021/12/09 01:48:51;;;;;;;31.10;14.73;;;6.00;86.30;;;;;;5115885;27;20246;-76
2021/12/09 01:51:20;;;;;;;33.87;14.93;;;5.90;86.30;;;;;;5112640;27;20181;-75
2021/12/09 01:53:50;;;;;;;31.73;14.93;;;5.90;86.40;;;;;;5120650;27;20195;-76
2021/12/09 01:56:21;;;;;;;28.87;14.73;;;6.00;86.40;;;;;;5119468;27;20212;-76
2021/12/09 01:58:51;;;;;;;30.40;15.53;;;5.90;86.30;;;;;;5122907;27;20193;-75
2021/12/09 02:01:21;;;;;;;31.47;14.60;;;5.90;86.50;;;;;;5118628;27;20200;-76
2021/12/09 02:03:50;;;;;;;31.67;14.83;;;6.00;86.50;;;;;;5110888;27;20181;-76
2021/12/09 02:06:19;;;;;;;31.10;14.87;;;6.00;86.40;;;;;;5121231;27;20192;-76
2021/12/09 02:08:48;;;;;;;28.13;14.37;;;6.00;86.40;;;;;;5119459;27;20196;-76
2021/12/09 02:11:18;;;;;;;28.77;15.03;;;6.00;86.30;;;;;;5121570;27;20287;-76
2021/12/09 02:13:47;;;;;;;31.00;14.77;;;6.00;86.30;;;;;;5117642;27;20256;-76
2021/12/09 02:16:15;;;;;;;28.77;14.60;;;6.00;86.30;;;;;;5119595;27;20244;-75
2021/12/09 02:18:45;;;;;;;27.43;14.77;;;6.00;86.30;;;;;;5116983;27;20305;-76
2021/12/09 02:21:17;;;;;;;31.13;15.23;;;6.00;86.20;;;;;;5120514;27;20809;-76
2021/12/09 02:23:47;;;;;;;28.97;15.07;;;6.00;86.20;;;;;;5108754;27;20189;-75
2021/12/09 02:26:17;;;;;;;29.97;14.83;;;6.00;86.10;;;;;;5116570;27;20842;-75
2021/12/09 02:28:49;;;;;;;33.37;15.80;;;6.00;86.10;;;;;;5121429;27;20187;-75
2021/12/09 02:31:18;;;;;;;32.60;16.00;;;6.00;86.10;;;;;;5124058;27;20189;-75
2021/12/09 02:33:46;;;;;;;32.27;15.57;;;6.00;86.10;;;;;;5112486;27;20184;-75
2021/12/09 02:36:16;;;;;;;29.50;15.53;;;6.00;85.90;;;;;;5111391;27;20220;-75
2021/12/09 02:38:45;;;;;;;32.17;15.67;;;6.00;85.90;;;;;;5122619;27;20196;-75
2021/12/09 02:41:18;;;;;;;32.70;16.07;;;5.90;85.90;;;;;;5114729;27;20196;-75
2021/12/09 02:43:50;;;;;;;31.87;15.27;;;5.90;85.90;;;;;;5110516;27;20184;-75
2021/12/09 02:46:19;;;;;;;33.13;15.27;;;6.00;85.80;;;;;;5116178;27;20180;-75
2021/12/09 02:48:47;;;;;;;29.83;14.90;;;5.90;85.70;;;;;;5107757;27;20206;-75
2021/12/09 02:51:17;;;;;;;28.93;14.67;;;5.90;85.60;;;;;;5127272;27;20272;-75
2021/12/09 02:53:45;;;;;;;29.63;15.33;;;5.90;85.60;;;;;;5118195;27;20203;-75
2021/12/09 02:56:14;;;;;;;28.57;13.63;;;5.90;85.60;;;;;;5117048;27;20359;-76
2021/12/09 02:58:43;;;;;;;35.13;15.93;;;5.90;85.50;;;;;;5115596;27;20192;-76
2021/12/09 03:01:16;;;;;;;36.73;15.10;;;5.90;85.50;;;;;;5115558;27;21171;-76
2021/12/09 03:03:50;;;;;;;34.90;15.13;;;5.90;85.60;;;;;;5121019;27;20186;-76
2021/12/09 03:06:25;;;;;;;33.70;14.27;;;5.80;85.50;;;;;;5112831;27;20197;-76
2021/12/09 03:08:54;;;;;;;28.73;15.30;;;5.80;85.40;;;;;;5116649;27;20195;-76
2021/12/09 03:11:24;;;;;;;30.73;15.07;;;5.80;85.40;;;;;;5117713;27;20199;-76
2021/12/09 03:13:52;;;;;;;26.47;14.73;;;5.80;85.40;;;;;;5123930;27;20184;-77
2021/12/09 03:16:22;;;;;;;30.23;14.17;;;5.80;85.30;;;;;;5114735;27;20212;-76
2021/12/09 03:18:54;;;;;;;27.47;14.90;;;5.80;85.30;;;;;;5125363;27;20275;-76
2021/12/09 03:21:27;;;;;;;27.57;14.60;;;5.80;85.30;;;;;;5111499;27;20333;-76
2021/12/09 03:23:57;;;;;;;31.60;13.83;;;5.80;85.30;;;;;;5118958;27;20264;-76
2021/12/09 03:26:30;;;;;;;28.80;14.30;;;5.80;85.30;;;;;;5115038;27;20193;-76
2021/12/09 03:29:00;;;;;;;32.00;15.67;;;5.70;85.20;;;;;;5109761;27;20204;-76
2021/12/09 03:31:29;;;;;;;28.50;14.17;;;5.70;84.90;;;;;;5115019;27;20195;-76
2021/12/09 03:33:58;;;;;;;29.47;14.83;;;5.70;84.80;;;;;;5113649;27;20238;-76
2021/12/09 03:36:28;;;;;;;31.73;14.63;;;5.70;84.90;;;;;;5115572;27;20208;-76
2021/12/09 03:38:58;;;;;;;31.20;15.47;;;5.60;84.90;;;;;;5119483;27;20194;-77
2021/12/09 03:41:27;;;;;;;33.17;15.67;;;5.60;84.90;;;;;;5122584;27;20196;-76
2021/12/09 03:43:56;;;;;;;30.13;15.53;;;5.60;84.90;;;;;;5118517;27;20189;-76
2021/12/09 03:46:24;;;;;;;33.40;17.50;;;5.60;84.90;;;;;;5115894;27;20196;-77
2021/12/09 03:48:53;;;;;;;34.87;16.43;;;5.60;84.60;;;;;;5117056;27;20185;-76
2021/12/09 03:51:22;;;;;;;38.40;18.17;;;5.50;84.50;;;;;;5119413;27;20200;-76
2021/12/09 03:53:53;;;;;;;38.53;17.63;;;5.50;84.40;;;;;;5108057;27;20959;-77
2021/12/09 03:56:22;;;;;;;42.27;17.87;;;5.50;84.60;;;;;;5106788;27;20189;-77
2021/12/09 03:58:50;;;;;;;37.40;17.17;;;5.40;84.70;;;;;;5108280;27;20189;-74
2021/12/09 04:01:19;;;;;;;37.83;17.30;;;5.40;84.90;;;;;;5121396;27;20275;-77
2021/12/09 04:03:47;;;;;;;36.57;17.50;;;5.30;84.90;;;;;;5113796;27;20193;-77
2021/12/09 04:06:16;;;;;;;45.57;19.17;;;5.30;85.00;;;;;;5118613;27;20713;-77
2021/12/09 04:08:44;;;;;;;43.10;19.50;;;5.40;85.10;;;;;;5121470;27;20184;-77
2021/12/09 04:11:14;;;;;;;47.47;19.63;;;5.40;85.20;;;;;;5119235;27;20662;-77
2021/12/09 04:13:42;;;;;;;56.57;20.17;;;5.30;85.20;;;;;;5115394;27;20193;-77
2021/12/09 04:16:11;;;;;;;57.67;20.37;;;5.30;85.20;;;;;;5110784;27;20183;-77
2021/12/09 04:18:41;;;;;;;51.40;19.87;;;5.30;85.40;;;;;;5113165;27;20217;-78
2021/12/09 04:21:10;;;;;;;55.43;20.00;;;5.30;85.40;;;;;;5111592;27;20689;-77
2021/12/09 04:23:38;;;;;;;53.00;19.70;;;5.20;85.50;;;;;;5111578;27;20197;-77
2021/12/09 04:26:07;;;;;;;47.17;19.73;;;5.30;85.60;;;;;;5123519;27;20700;-77
2021/12/09 04:28:38;;;;;;;46.73;20.60;;;5.20;85.50;;;;;;5109947;27;20211;-78
2021/12/09 04:31:08;;;;;;;53.53;21.00;;;5.20;85.70;;;;;;5124251;27;20196;-77
2021/12/09 04:33:36;;;;;;;53.37;20.80;;;5.20;86.00;;;;;;5127412;27;20192;-77
2021/12/09 04:36:05;;;;;;;45.07;16.17;;;5.20;86.10;;;;;;5123484;27;20216;-77
2021/12/09 04:38:34;;;;;;;44.33;14.97;;;5.10;86.40;;;;;;5123692;27;20236;-77
2021/12/09 04:41:03;;;;;;;43.93;13.33;;;5.10;86.90;;;;;;5116841;27;20278;-77
2021/12/09 04:43:32;;;;;;;43.60;15.27;;;5.10;87.70;;;;;;5108778;27;20677;-77
2021/12/09 04:46:01;;;;;;;45.50;14.67;;;5.00;87.70;;;;;;5111166;27;20193;-77
2021/12/09 04:48:30;;;;;;;47.13;15.37;;;5.00;88.00;;;;;;5114886;27;20308;-77
2021/12/09 04:50:59;;;;;;;62.07;16.83;;;5.10;88.10;;;;;;5111088;27;20797;-77
2021/12/09 04:53:27;;;;;;;50.20;15.30;;;5.10;88.20;;;;;;5119640;27;21831;-77
2021/12/09 04:55:55;;;;;;;73.40;17.40;;;5.20;88.40;;;;;;5128250;27;20196;-77
2021/12/09 04:58:24;;;;;;;54.70;15.73;;;5.20;88.60;;;;;;5116188;27;20677;-77
2021/12/09 05:00:53;;;;;;;73.30;18.13;;;5.20;88.80;;;;;;5114554;27;20189;-77
2021/12/09 05:03:23;;;;;;;80.87;18.87;;;5.30;88.90;;;;;;5120540;27;20245;-77
2021/12/09 05:05:53;;;;;;;85.83;20.30;;;5.40;89.10;;;;;;5121379;27;20216;-77
2021/12/09 05:08:26;;;;;;;62.47;20.17;;;5.40;89.20;;;;;;5122087;27;20947;-77
2021/12/09 05:11:02;;;;;;;65.13;18.90;;;5.50;89.30;;;;;;5117911;27;20837;-77
2021/12/09 05:13:32;;;;;;;54.53;18.60;;;5.50;89.50;;;;;;5109207;27;20240;-77
2021/12/09 05:16:02;;;;;;;101.10;23.17;;;5.50;90.00;;;;;;5121626;27;20188;-77
2021/12/09 05:18:34;;;;;;;49.17;18.47;;;5.60;90.00;;;;;;5115900;27;20228;-77
2021/12/09 05:21:04;;;;;;;51.63;19.27;;;5.60;90.00;;;;;;5122444;27;20282;-77
2021/12/09 05:23:33;;;;;;;60.63;20.03;;;5.60;90.00;;;;;;5106376;27;20211;-77
2021/12/09 05:26:02;;;;;;;58.33;19.53;;;5.70;90.00;;;;;;5114331;27;21140;-77
2021/12/09 05:28:33;;;;;;;50.93;19.73;;;5.70;90.00;;;;;;5108607;27;20189;-76
2021/12/09 05:33:53;;;;;;;53.33;19.07;;;5.80;90.10;;;;;;5117537;27;20618;-77
2021/12/09 05:36:21;;;;;;;60.57;20.67;;;5.80;90.10;;;;;;5112249;27;20196;-76
2021/12/09 05:38:50;;;;;;;51.63;18.23;;;5.90;90.10;;;;;;5107928;27;20682;-76
2021/12/09 05:41:18;;;;;;;45.40;17.17;;;5.90;90.00;;;;;;5117134;27;20852;-77
2021/12/09 05:43:46;;;;;;;58.40;20.73;;;5.90;90.00;;;;;;5114014;27;20199;-76
2021/12/09 05:46:14;;;;;;;48.43;19.03;;;5.90;90.00;;;;;;5122013;27;20195;-77
2021/12/09 05:48:43;;;;;;;49.07;19.57;;;6.00;90.00;;;;;;5121902;27;20188;-77
2021/12/09 05:51:12;;;;;;;45.80;18.93;;;6.00;90.00;;;;;;5116363;27;20195;-76
2021/12/09 05:53:41;;;;;;;48.67;20.57;;;6.00;89.90;;;;;;5121089;27;20256;-75
2021/12/09 05:56:09;;;;;;;47.97;20.43;;;6.10;90.00;;;;;;5111619;27;20258;-76
2021/12/09 05:58:37;;;;;;;52.50;21.27;;;6.10;89.90;;;;;;5119490;27;20418;-77
2021/12/09 06:01:07;;;;;;;52.03;21.47;;;6.10;89.70;;;;;;5110544;27;20294;-77
2021/12/09 06:03:35;;;;;;;48.50;20.30;;;6.20;89.70;;;;;;5112843;27;20309;-76
2021/12/09 06:06:07;;;;;;;52.37;21.13;;;6.20;89.70;;;;;;5121785;27;20704;-76
2021/12/09 06:08:38;;;;;;;54.43;21.57;;;6.20;89.60;;;;;;5114345;27;20190;-76
2021/12/09 06:11:10;;;;;;;52.93;21.57;;;6.20;89.40;;;;;;5109309;28;20220;-77
2021/12/09 06:13:38;;;;;;;46.63;20.30;;;6.20;89.40;;;;;;5113726;28;20376;-76
2021/12/09 06:16:09;;;;;;;52.10;20.77;;;6.30;89.40;;;;;;5116324;27;20200;-76
2021/12/09 06:18:37;;;;;;;49.60;20.70;;;6.30;89.40;;;;;;5125002;27;21140;-76
2021/12/09 06:21:06;;;;;;;53.60;20.80;;;6.30;89.40;;;;;;5120272;27;20192;-76
2021/12/09 06:23:36;;;;;;;58.47;22.23;;;6.30;89.30;;;;;;5119031;27;20197;-76
2021/12/09 06:26:06;;;;;;;50.57;21.30;;;6.40;89.40;;;;;;5110369;27;20702;-76
2021/12/09 06:28:35;;;;;;;54.33;21.73;;;6.40;89.30;;;;;;5115389;27;20202;-76
2021/12/09 06:31:04;;;;;;;54.93;20.87;;;6.40;89.30;;;;;;5120368;28;20197;-76
2021/12/09 06:33:33;;;;;;;55.90;21.27;;;6.40;89.30;;;;;;5110680;27;20235;-76
2021/12/09 06:36:02;;;;;;;56.70;22.87;;;6.50;89.40;;;;;;5110191;27;20209;-76
2021/12/09 06:38:30;;;;;;;54.87;20.87;;;6.50;89.40;;;;;;5113812;27;20222;-76
2021/12/09 06:41:00;;;;;;;54.53;22.57;;;6.60;89.30;;;;;;5112943;27;20194;-76
2021/12/09 06:43:29;;;;;;;53.10;21.53;;;6.60;89.20;;;;;;5107419;27;20191;-76
2021/12/09 06:45:58;;;;;;;61.20;24.60;;;6.60;89.20;;;;;;5115673;27;20189;-76
2021/12/09 06:48:27;;;;;;;51.40;20.20;;;6.60;89.20;;;;;;5121973;27;20281;-76
2021/12/09 06:50:55;;;;;;;57.07;22.30;;;6.70;89.20;;;;;;5119260;27;20202;-76
2021/12/09 06:53:23;;;;;;;57.13;23.57;;;6.70;89.20;;;;;;5133653;27;20181;-76
2021/12/09 06:55:51;;;;;;;58.80;22.90;;;6.80;89.20;;;;;;5121462;27;20190;-77
2021/12/09 06:58:21;;;;;;;58.90;23.37;;;6.80;89.20;;;;;;5120856;27;20223;-77
2021/12/09 07:00:50;;;;;;;65.67;25.30;;;6.90;89.10;;;;;;5121342;27;20558;-76
2021/12/09 07:03:21;;;;;;;64.82;27.20;;;6.90;89.00;;;;;;5114876;27;20428;-77
2021/12/09 07:05:50;;;;;;;58.17;25.47;;;6.90;89.10;;;;;;5115120;27;20192;-77
2021/12/09 07:08:19;;;;;;;57.60;24.37;;;6.90;88.80;;;;;;5119524;27;20295;-76
2021/12/09 07:10:48;;;;;;;54.93;22.80;;;7.00;88.80;;;;;;5122957;27;20192;-77
2021/12/09 07:13:17;;;;;;;50.23;22.83;;;7.00;88.80;;;;;;5117607;27;20207;-77
2021/12/09 07:15:46;;;;;;;50.60;22.40;;;7.00;88.70;;;;;;5113111;27;20193;-78
2021/12/09 07:18:15;;;;;;;54.47;22.67;;;7.10;88.60;;;;;;5119948;27;20191;-76
2021/12/09 07:20:43;;;;;;;59.23;22.77;;;7.10;88.60;;;;;;5116336;27;20188;-76
2021/12/09 07:23:11;;;;;;;57.73;22.97;;;7.10;88.20;;;;;;5117893;27;20195;-76
2021/12/09 07:25:39;;;;;;;51.60;22.93;;;7.20;88.20;;;;;;5124496;27;20329;-76
2021/12/09 07:28:08;;;;;;;53.50;24.27;;;7.20;87.80;;;;;;5119063;27;20194;-75
2021/12/09 07:30:39;;;;;;;53.33;23.57;;;7.30;87.80;;;;;;5116670;27;20694;-76
2021/12/09 07:33:09;;;;;;;60.53;25.13;;;7.30;87.70;;;;;;5112670;27;20199;-75
2021/12/09 07:35:39;;;;;;;51.87;23.20;;;7.30;87.50;;;;;;5106082;27;20224;-76
2021/12/09 07:38:08;;;;;;;50.33;21.50;;;7.30;87.40;;;;;;5114637;27;20223;-76
2021/12/09 07:40:36;;;;;;;55.07;22.90;;;7.40;87.10;;;;;;5122671;27;20234;-76
2021/12/09 07:43:05;;;;;;;53.50;23.03;;;7.40;87.20;;;;;;5116146;27;20188;-76
2021/12/09 07:45:34;;;;;;;52.87;22.83;;;7.50;87.20;;;;;;5122353;27;20812;-76
2021/12/09 07:48:02;;;;;;;50.73;22.97;;;7.50;87.20;;;;;;5116856;27;20191;-75
2021/12/09 07:50:33;;;;;;;63.77;25.00;;;7.60;87.20;;;;;;5114937;27;20202;-75
2021/12/09 07:53:02;;;;;;;52.27;23.43;;;7.60;87.00;;;;;;5120186;27;20186;-76
2021/12/09 07:55:30;;;;;;;56.60;23.80;;;7.70;86.90;;;;;;5124197;27;20199;-76
2021/12/09 07:57:59;;;;;;;56.90;24.70;;;7.70;87.00;;;;;;5110358;27;20203;-76
2021/12/09 08:00:31;;;;;;;60.80;24.73;;;7.80;86.90;;;;;;5115840;27;20215;-75
2021/12/09 08:03:01;;;;;;;51.40;22.37;;;7.90;86.80;;;;;;5122041;27;20223;-76
2021/12/09 08:05:33;;;;;;;63.83;21.77;;;7.90;86.50;;;;;;5114990;27;20695;-76
2021/12/09 08:08:01;;;;;;;55.23;21.97;;;7.90;86.40;;;;;;5118758;27;20188;-76
2021/12/09 08:10:29;;;;;;;56.43;22.73;;;8.00;86.00;;;;;;5117409;27;20188;-76
2021/12/09 08:12:59;;;;;;;52.33;21.27;;;8.10;85.80;;;;;;5121676;27;20189;-76
2021/12/09 08:15:29;;;;;;;57.53;22.70;;;8.10;85.50;;;;;;5113993;27;20871;-76
2021/12/09 08:18:02;;;;;;;57.70;22.27;;;8.10;85.60;;;;;;5116718;27;20272;-76
2021/12/09 08:20:33;;;;;;;51.53;22.67;;;8.20;85.40;;;;;;5109786;27;20208;-76
2021/12/09 08:23:02;;;;;;;52.83;23.70;;;8.20;85.20;;;;;;5121442;27;20204;-76
2021/12/09 08:25:30;;;;;;;54.70;23.43;;;8.30;85.20;;;;;;5115740;27;20208;-76
2021/12/09 08:27:58;;;;;;;58.00;24.00;;;8.30;85.10;;;;;;5120537;27;20188;-76
2021/12/09 08:30:27;;;;;;;53.10;21.87;;;8.40;85.00;;;;;;5117020;27;20199;-77
2021/12/09 08:33:15;;;;;;;70.10;27.27;;;8.40;84.50;;;;;;5114724;27;20203;-76
2021/12/09 08:35:45;;;;;;;55.87;23.17;;;8.50;84.40;;;;;;5110246;27;20236;-76
2021/12/09 08:38:13;;;;;;;57.53;22.70;;;8.40;82.90;;;;;;5111988;27;20196;-75
2021/12/09 08:40:43;;;;;;;53.03;23.03;;;8.40;82.60;;;;;;5111134;27;20218;-77
2021/12/09 08:43:12;;;;;;;51.87;23.20;;;8.40;82.50;;;;;;5119189;27;20183;-76
2021/12/09 08:45:40;;;;;;;51.80;22.30;;;8.40;82.90;;;;;;5112620;27;20200;-77
2021/12/09 08:48:09;;;;;;;50.97;21.97;;;8.40;82.50;;;;;;5109298;27;20192;-76
2021/12/09 08:50:38;;;;;;;63.40;23.10;;;8.50;83.00;;;;;;5120972;27;20203;-75
2021/12/09 08:53:11;;;;;;;53.33;23.10;;;8.60;82.90;;;;;;5103124;27;20653;-75
2021/12/09 08:55:40;;;;;;;53.63;22.60;;;8.60;82.30;;;;;;5111766;27;20554;-76
2021/12/09 08:58:10;;;;;;;54.33;22.67;;;8.60;81.90;;;;;;5118687;27;20200;-75
2021/12/09 09:00:39;;;;;;;47.70;21.47;;;8.60;82.20;;;;;;5120955;27;20223;-77
2021/12/09 09:03:08;;;;;;;52.03;22.13;;;8.60;81.90;;;;;;5113555;27;20194;-76
2021/12/09 09:05:38;;;;;;;48.27;22.50;;;8.60;81.90;;;;;;5120505;27;20192;-76
2021/12/09 09:08:08;;;;;;;57.70;23.90;;;8.60;82.20;;;;;;5117483;27;20185;-77
2021/12/09 09:10:38;;;;;;;53.33;21.67;;;8.60;82.30;;;;;;5110313;27;20859;-76
2021/12/09 09:13:07;;;;;;;58.43;21.93;;;8.60;82.20;;;;;;5110309;27;20803;-76
2021/12/09 09:15:36;;;;;;;59.43;24.03;;;8.60;82.50;;;;;;5110294;27;20188;-76
2021/12/09 09:18:05;;;;;;;46.77;20.50;;;8.70;82.70;;;;;;5112270;27;20196;-76
2021/12/09 09:20:39;;;;;;;60.63;24.60;;;8.70;82.60;;;;;;5111521;27;20219;-76
2021/12/09 09:23:11;;;;;;;56.33;22.60;;;8.80;82.70;;;;;;5109886;27;20247;-77
2021/12/09 09:25:41;;;;;;;43.57;21.00;;;8.90;82.70;;;;;;5109587;27;20261;-77
2021/12/09 09:28:10;;;;;;;44.83;21.47;;;8.90;82.30;;;;;;5111053;27;20208;-75
2021/12/09 09:30:43;;;;;;;47.00;21.57;;;9.00;82.50;;;;;;5111600;27;20754;-77
2021/12/09 09:33:13;;;;;;;49.53;21.07;;;9.00;82.00;;;;;;5111146;27;20195;-75
2021/12/09 09:35:44;;;;;;;51.73;22.50;;;9.20;82.10;;;;;;5108432;27;20213;-77
2021/12/09 09:38:15;;;;;;;45.40;21.60;;;9.20;81.90;;;;;;5108902;27;20275;-77
2021/12/09 09:40:50;;;;;;;53.63;23.43;;;9.30;81.50;;;;;;5110569;27;20721;-76
2021/12/09 09:43:30;;;;;;;60.30;25.03;;;9.30;81.50;;;;;;5111838;28;20183;-75
2021/12/09 09:46:04;;;;;;;67.27;28.23;;;9.40;81.30;;;;;;5111875;27;20192;-74
2021/12/09 09:48:34;;;;;;;39.03;19.90;;;9.50;81.30;;;;;;5104078;27;20272;-73
2021/12/09 09:51:04;;;;;;;66.67;26.77;;;9.60;81.10;;;;;;5108854;27;20191;-75
2021/12/09 09:53:34;;;;;;;62.17;25.40;;;9.70;80.60;;;;;;5115349;28;20201;-76
2021/12/09 09:56:12;;;;;;;49.45;22.15;;;9.70;80.50;;;;;;5108836;28;20431;-76
2021/12/09 09:58:42;;;;;;;44.83;22.63;;;9.80;80.50;;;;;;5107582;27;20192;-78
2021/12/09 10:01:10;;;;;;;46.33;21.10;;;9.80;80.40;;;;;;5115185;28;20235;-76
2021/12/09 10:03:41;;;;;;;44.63;21.87;;;9.80;80.50;;;;;;5117956;28;20196;-77
2021/12/09 10:06:11;;;;;;;41.43;20.03;;;9.80;79.20;;;;;;5113671;27;20552;-78
2021/12/09 10:08:42;;;;;;;40.60;19.93;;;9.80;79.10;;;;;;5119266;27;20192;-77
2021/12/09 10:11:10;;;;;;;44.07;20.53;;;9.80;79.10;;;;;;5105260;28;20181;-77
2021/12/09 10:13:41;;;;;;;45.97;21.43;;;9.90;79.50;;;;;;5117915;27;20185;-76
2021/12/09 10:16:19;;;;;;;40.10;20.40;;;10.00;80.00;;;;;;5123644;27;20410;-76
2021/12/09 10:18:49;;;;;;;41.07;20.10;;;10.00;78.80;;;;;;5106149;27;20185;-76
2021/12/09 10:21:23;;;;;;;40.77;18.70;;;10.00;79.10;;;;;;5121963;27;20826;-77
2021/12/09 10:24:01;;;;;;;38.47;18.73;;;10.00;78.50;;;;;;5123967;27;20176;-77
2021/12/09 10:26:31;;;;;;;38.20;17.90;;;10.00;78.50;;;;;;5127239;27;20195;-78
2021/12/09 10:29:13;;;;;;;35.50;17.63;;;10.00;78.50;;;;;;5127014;27;20223;-77
2021/12/09 10:31:46;;;;;;;37.47;18.97;;;10.10;78.90;;;;;;5132571;27;20188;-77
2021/12/09 10:34:20;;;;;;;38.33;18.17;;;10.00;78.40;;;;;;5124515;27;20217;-76
2021/12/09 10:36:56;;;;;;;30.63;15.87;;;10.00;78.20;;;;;;5120967;27;20196;-76
2021/12/09 10:39:42;;;;;;;31.07;15.57;;;10.00;78.60;;;;;;5120415;27;20184;-77
2021/12/09 10:42:13;;;;;;;29.83;16.27;;;10.00;78.50;;;;;;5131807;27;20269;-76
2021/12/09 10:44:48;;;;;;;31.93;16.60;;;10.00;78.50;;;;;;5125781;27;20291;-77
2021/12/09 10:47:34;;;;;;;32.73;15.30;;;10.10;78.40;;;;;;5119264;27;20184;-76
2021/12/09 10:50:10;;;;;;;29.93;15.43;;;10.10;78.30;;;;;;5118693;27;20192;-76
2021/12/09 10:52:44;;;;;;;29.67;15.83;;;10.20;78.30;;;;;;5118193;27;20270;-78
2021/12/09 10:55:22;;;;;;;28.63;14.47;;;10.20;78.50;;;;;;5120432;27;20216;-76
2021/12/09 10:58:08;;;;;;;28.67;15.27;;;10.30;78.30;;;;;;5111636;27;20240;-75
2021/12/09 11:00:40;;;;;;;32.00;16.20;;;10.30;78.00;;;;;;5123372;27;20201;-76
2021/12/09 11:03:13;;;;;;;28.87;14.77;;;10.40;78.50;;;;;;5120952;27;20788;-76
2021/12/09 11:05:44;;;;;;;28.27;14.57;;;10.40;78.20;;;;;;5110621;27;20257;-76
2021/12/09 11:08:32;;;;;;;31.83;15.03;;;10.40;77.70;;;;;;5115268;27;20207;-76
2021/12/09 11:11:06;;;;;;;29.57;14.63;;;10.40;78.00;;;;;;5113694;27;20276;-77
2021/12/09 11:13:45;;;;;;;27.70;14.30;;;10.50;77.60;;;;;;5112176;27;20818;-76
2021/12/09 11:16:23;;;;;;;29.23;14.57;;;10.50;77.40;;;;;;5111880;27;20207;-76
2021/12/09 11:18:56;;;;;;;27.83;14.50;;;10.50;77.80;;;;;;5114003;27;20210;-77
2021/12/09 11:21:29;;;;;;;29.70;15.13;;;10.60;77.60;;;;;;5116302;27;20208;-76
2021/12/09 11:24:02;;;;;;;29.83;16.67;;;10.70;77.20;;;;;;5121517;27;20588;-75
2021/12/09 11:26:43;;;;;;;29.03;15.43;;;10.80;77.00;;;;;;5120676;27;20189;-76
2021/12/09 11:29:14;;;;;;;31.23;15.50;;;10.80;77.00;;;;;;5120012;27;20570;-75
2021/12/09 11:31:49;;;;;;;28.77;15.67;;;10.90;77.00;;;;;;5111687;27;20196;-76
2021/12/09 11:34:22;;;;;;;34.40;16.47;;;10.90;75.80;;;;;;5112780;27;20212;-77
2021/12/09 11:36:57;;;;;;;30.77;16.83;;;10.80;76.20;;;;;;5117149;27;20177;-76
2021/12/09 11:39:32;;;;;;;32.57;16.70;;;10.80;76.30;;;;;;5116617;27;20241;-76
2021/12/09 11:42:24;;;;;;;33.70;16.27;;;10.80;75.80;;;;;;5120327;27;20208;-76
2021/12/09 11:45:09;;;;;;;35.73;18.13;;;10.70;76.10;;;;;;5115030;27;20181;-76
2021/12/09 11:47:39;;;;;;;32.33;16.90;;;10.70;75.90;;;;;;5108766;27;20189;-76
2021/12/09 11:50:11;;;;;;;35.10;16.70;;;10.70;76.30;;;;;;5117116;27;20560;-77
2021/12/09 11:52:42;;;;;;;32.63;16.77;;;10.70;76.30;;;;;;5117326;27;20185;-76
2021/12/09 11:55:13;;;;;;;32.70;16.83;;;10.70;76.30;;;;;;5119261;27;20237;-76
2021/12/09 11:57:46;;;;;;;38.17;16.53;;;10.70;76.40;;;;;;5118720;27;20189;-76
2021/12/09 12:07:06;;;;;;;27.97;15.93;;;10.70;76.70;;;;;;5113805;27;20227;-76
2021/12/09 12:12:46;;;;;;;30.57;15.93;;;10.60;76.30;;;;;;5031942;28;20210;-76
2021/12/09 12:15:53;;;;;;;32.93;17.17;;;10.60;76.10;;;;;;5097250;27;20185;-76
2021/12/09 12:24:41;;;;;;;30.17;14.97;;;10.40;76.70;;;;;;5078039;27;20196;-76
2021/12/09 12:27:29;;;;;;;31.40;14.87;;;10.30;76.70;;;;;;5117872;27;20196;-76
2021/12/09 12:30:17;;;;;;;27.07;14.30;;;10.40;77.20;;;;;;5109703;27;20909;-76
2021/12/09 12:33:12;;;;;;;26.80;13.83;;;10.30;76.90;;;;;;5108158;27;20193;-75
2021/12/09 12:36:03;;;;;;;27.27;13.97;;;10.20;77.40;;;;;;5107804;27;21406;-76
2021/12/09 12:38:48;;;;;;;27.83;14.67;;;10.20;77.30;;;;;;5119391;27;20199;-75
2021/12/09 12:41:19;;;;;;;30.47;15.33;;;10.20;77.40;;;;;;5121197;27;20211;-75
2021/12/09 12:43:55;;;;;;;27.53;14.23;;;10.00;77.80;;;;;;5117437;27;20177;-75
2021/12/09 12:46:47;;;;;;;32.30;14.67;;;10.00;78.20;;;;;;5118118;27;20196;-75
2021/12/09 12:49:27;;;;;;;27.47;13.33;;;10.00;77.80;;;;;;5115444;27;20185;-76
2021/12/09 12:52:01;;;;;;;30.07;14.50;;;10.00;77.80;;;;;;5112526;27;20196;-77
2021/12/09 12:54:49;;;;;;;31.23;16.00;;;10.10;78.00;;;;;;5113147;27;20253;-77
2021/12/09 12:57:32;;;;;;;31.50;14.93;;;10.10;77.90;;;;;;5110788;27;20180;-76
2021/12/09 13:00:08;;;;;;;28.53;14.50;;;10.10;77.90;;;;;;5110480;27;20560;-76
2021/12/09 13:03:02;;;;;;;35.60;16.50;;;10.20;77.90;;;;;;5119019;27;20913;-76
2021/12/09 13:05:51;;;;;;;29.27;13.93;;;10.20;78.00;;;;;;5106578;27;20200;-76
2021/12/09 13:08:49;;;;;;;29.23;13.67;;;10.30;77.70;;;;;;5116095;27;20775;-76
2021/12/09 13:11:23;;;;;;;34.87;16.20;;;10.20;77.50;;;;;;5119209;27;20402;-76
2021/12/09 13:13:59;;;;;;;30.53;14.93;;;10.30;77.80;;;;;;5116813;27;20291;-76
2021/12/09 13:16:41;;;;;;;28.37;14.87;;;10.20;77.70;;;;;;5110555;27;20220;-76